Time,TemperatureF,DewpointF,PressureIn,WindDirection,WindDirectionDegrees,WindSpeedMPH,WindSpeedGustMPH,Humidity,HourlyPrecipIn,Conditions,Clouds,dailyrainin,SolarRadiationWatts/m^2,SoftwareType,DateUTC
2013-01-16 00:00:00,28.4,26.1,29.85,NE,42,0.0,0.0,91,0.00,CLR,,0.00,0.0,WeatherDisplay:10.37,2013-01-16 00:00:00,
2013-01-16 00:10:00,28.0,25.8,29.85,NE,42,0.0,0.0,91,0.00,CLR,,0.00,0.0,WeatherDisplay:10.37,2013-01-16 00:10:00,
2013-01-16 00:20:00,27.9,25.6,29.85,NE,42,0.0,0.0,91,0.00,CLR,,0.00,0.0,WeatherDisplay:10.37,2013-01-16 00:20:00,
2013-01-16 00:30:00,27.7,25.4,29.85,NE,42,0.0,0.0,91,0.00,CLR,,0.00,0.0,WeatherDisplay:10.37,2013-01-16 00:30:00,
2013-01-16 00:40:00,27.5,25.2,29.85,NE,42,0.0,0.0,91,0.00,CLR,,0.00,0.0,WeatherDisplay:10.37,2013-01-16 00:40:00,
2013-01-16 00:50:00,27.0,24.7,29.85,NE,42,0.0,0.0,91,0.00,CLR,,0.00,0.0,WeatherDisplay:10.37,2013-01-16 00:50:00,
2013-01-16 01:00:00,27.0,24.7,29.85,NE,42,0.0,0.0,91,0.00,CLR,,0.00,0.0,WeatherDisplay:10.37,2013-01-16 01:00:00,
2013-01-16 01:10:00,27.3,25.0,29.85,NE,42,0.0,0.0,91,0.00,CLR,,0.00,0.0,WeatherDisplay:10.37,2013-01-16 01:10:00,
2013-01-16 01:20:00,27.3,25.0,29.85,NE,42,0.0,0.0,91,0.00,CLR,,0.00,0.0,WeatherDisplay:10.37,2013-01-16 01:20:00,
2013-01-16 01:30:00,27.1,24.9,29.85,NE,42,0.0,5.0,91,0.00,CLR,,0.00,0.0,WeatherDisplay:10.37,2013-01-16 01:30:00,
2013-01-16 01:40:00,27.3,25.0,29.85,NE,42,0.0,6.0,91,0.00,CLR,,0.00,0.0,WeatherDisplay:10.37,2013-01-16 01:40:00,
2013-01-16 01:50:00,27.9,25.6,29.85,NE,39,0.0,3.0,91,0.00,CLR,,0.00,0.0,WeatherDisplay:10.37,2013-01-16 01:50:00,
2013-01-16 02:00:00,28.3,26.0,29.85,NE,51,0.0,4.0,91,0.00,CLR,,0.00,0.0,WeatherDisplay:10.37,2013-01-16 02:00:00,
2013-01-16 02:10:00,28.6,26.3,29.83,NE,56,0.0,3.0,91,0.00,CLR,,0.00,0.0,WeatherDisplay:10.37,2013-01-16 02:10:00,
2013-01-16 02:20:00,28.8,26.5,29.85,NE,45,0.0,5.0,91,0.00,CLR,,0.00,0.0,WeatherDisplay:10.37,2013-01-16 02:20:00,
2013-01-16 02:30:00,28.6,26.3,29.85,NE,46,0.0,3.0,91,0.00,CLR,,0.00,0.0,WeatherDisplay:10.37,2013-01-16 02:30:00,
2013-01-16 02:40:00,28.4,26.1,29.83,NE,50,0.0,6.0,91,0.00,CLR,,0.00,0.0,WeatherDisplay:10.37,2013-01-16 02:40:00,
2013-01-16 03:00:00,28.5,26.2,29.83,ENE,66,0.0,4.0,91,0.00,CLR,,0.00,0.0,WeatherDisplay:10.37,2013-01-16 03:00:00,
2013-01-16 03:10:00,28.4,26.4,29.83,ENE,77,0.0,3.0,92,0.00,CLR,,0.00,0.0,WeatherDisplay:10.37,2013-01-16 03:10:00,
2013-01-16 03:20:00,28.2,26.2,29.83,NE,55,0.0,4.0,92,0.00,CLR,,0.00,0.0,WeatherDisplay:10.37,2013-01-16 03:20:00,
2013-01-16 03:30:00,28.4,26.4,29.83,ENE,75,1.0,5.0,92,0.00,CLR,,0.00,0.0,WeatherDisplay:10.37,2013-01-16 03:30:00,
2013-01-16 03:50:00,28.0,26.0,29.83,East,85,1.0,6.0,92,0.00,CLR,,0.00,0.0,WeatherDisplay:10.37,2013-01-16 03:50:00,
2013-01-16 04:00:00,28.0,26.0,29.83,ENE,66,2.0,6.0,92,0.00,CLR,,0.00,0.0,WeatherDisplay:10.37,2013-01-16 04:00:00,
2013-01-16 04:10:00,28.0,26.0,29.83,ENE,67,0.0,6.0,92,0.00,CLR,,0.00,0.0,WeatherDisplay:10.37,2013-01-16 04:10:00,
2013-01-16 04:20:00,28.0,26.3,29.83,NE,53,0.0,5.0,93,0.00,CLR,,0.00,0.0,WeatherDisplay:10.37,2013-01-16 04:20:00,
2013-01-16 04:30:00,28.4,26.6,29.83,ENE,68,1.0,7.0,93,0.00,CLR,,0.00,0.0,WeatherDisplay:10.37,2013-01-16 04:30:00,
2013-01-16 04:40:00,28.6,26.8,29.83,ENE,68,0.0,7.0,93,0.00,CLR,,0.00,0.0,WeatherDisplay:10.37,2013-01-16 04:40:00,
2013-01-16 04:50:00,28.6,26.8,29.83,ENE,69,3.0,7.0,93,0.00,CLR,,0.00,0.0,WeatherDisplay:10.37,2013-01-16 04:50:00,
2013-01-16 05:10:00,28.8,27.0,29.83,ENE,71,0.0,5.0,93,0.00,CLR,,0.00,0.0,WeatherDisplay:10.37,2013-01-16 05:10:00,
2013-01-16 05:20:00,28.7,26.9,29.83,ENE,73,0.0,6.0,93,0.00,CLR,,0.00,0.0,WeatherDisplay:10.37,2013-01-16 05:20:00,
2013-01-16 05:30:00,28.6,26.8,29.83,ENE,63,1.0,6.0,93,0.00,CLR,,0.00,0.0,WeatherDisplay:10.37,2013-01-16 05:30:00,
2013-01-16 05:40:00,28.6,26.8,29.83,ENE,75,0.0,4.0,93,0.00,CLR,,0.00,0.0,WeatherDisplay:10.37,2013-01-16 05:40:00,
2013-01-16 05:50:00,28.6,26.8,29.83,East,83,2.0,7.0,93,0.00,CLR,,0.00,0.0,WeatherDisplay:10.37,2013-01-16 05:50:00,
2013-01-16 06:00:00,28.6,26.8,29.83,NE,44,0.0,7.0,93,0.00,CLR,,0.00,0.0,WeatherDisplay:10.37,2013-01-16 06:00:00,
2013-01-16 06:10:00,28.4,26.6,29.83,ENE,71,2.0,7.0,93,0.00,CLR,,0.00,0.0,WeatherDisplay:10.37,2013-01-16 06:10:00,
2013-01-16 06:20:00,28.2,26.5,29.83,ENE,70,2.0,6.0,93,0.00,CLR,,0.00,0.0,WeatherDisplay:10.37,2013-01-16 06:20:00,
2013-01-16 06:30:00,28.2,26.5,29.83,NE,47,2.0,7.0,93,0.00,CLR,,0.00,0.0,WeatherDisplay:10.37,2013-01-16 06:30:00,
2013-01-16 06:40:00,28.2,26.5,29.83,East,90,0.0,6.0,93,0.00,CLR,,0.00,0.0,WeatherDisplay:10.37,2013-01-16 06:40:00,
2013-01-16 06:50:00,28.2,26.5,29.83,East,84,2.0,6.0,93,0.00,CLR,,0.00,0.0,WeatherDisplay:10.37,2013-01-16 06:50:00,
2013-01-16 07:00:00,28.2,26.5,29.83,NE,53,0.0,6.0,93,0.00,CLR,,0.00,0.0,WeatherDisplay:10.37,2013-01-16 07:00:00,
2013-01-16 07:10:00,28.0,26.3,29.85,NE,56,1.0,7.0,93,0.00,OVC,,0.00,0.0,WeatherDisplay:10.37,2013-01-16 07:10:00,
2013-01-16 07:20:00,28.2,26.5,29.85,NE,55,0.0,5.0,93,0.00,OVC,,0.00,0.0,WeatherDisplay:10.37,2013-01-16 07:20:00,
2013-01-16 07:30:00,28.4,26.6,29.85,NNE,32,0.0,0.0,93,0.00,OVC,,0.00,0.0,WeatherDisplay:10.37,2013-01-16 07:30:00,
2013-01-16 07:40:00,28.4,26.6,29.85,East,84,0.0,3.0,93,0.00,OVC,,0.00,0.0,WeatherDisplay:10.37,2013-01-16 07:40:00,
2013-01-16 07:50:00,28.1,26.3,29.85,ENE,72,3.0,6.0,93,0.00,OVC,,0.00,0.0,WeatherDisplay:10.37,2013-01-16 07:50:00,
2013-01-16 08:00:00,28.0,26.3,29.85,NE,38,0.0,5.0,93,0.00,OVC,,0.00,0.0,WeatherDisplay:10.37,2013-01-16 08:00:00,
2013-01-16 08:10:00,28.2,26.5,29.85,NE,38,3.0,6.0,93,0.00,OVC,,0.00,0.0,WeatherDisplay:10.37,2013-01-16 08:10:00,
2013-01-16 08:20:00,28.0,26.3,29.85,NE,51,2.0,7.0,93,0.00,OVC,,0.00,0.0,WeatherDisplay:10.37,2013-01-16 08:20:00,
2013-01-16 08:30:00,28.2,26.5,29.85,NE,36,0.0,7.0,93,0.00,OVC,,0.00,0.0,WeatherDisplay:10.37,2013-01-16 08:30:00,
2013-01-16 08:40:00,28.2,26.2,29.85,NE,56,2.0,6.0,92,0.00,OVC,,0.00,0.0,WeatherDisplay:10.37,2013-01-16 08:40:00,
2013-01-16 08:50:00,28.2,26.2,29.85,ENE,62,1.0,6.0,92,0.00,OVC,,0.00,0.0,WeatherDisplay:10.37,2013-01-16 08:50:00,
2013-01-16 09:00:00,28.2,26.2,29.85,NE,52,0.0,7.0,92,0.00,OVC,,0.00,0.0,WeatherDisplay:10.37,2013-01-16 09:00:00,
2013-01-16 09:10:00,28.4,26.4,29.88,NE,45,1.0,7.0,92,0.00,OVC,,0.00,0.0,WeatherDisplay:10.37,2013-01-16 09:10:00,
2013-01-16 09:20:00,28.2,26.2,29.88,NE,46,2.0,8.0,92,0.00,OVC,,0.00,0.0,WeatherDisplay:10.37,2013-01-16 09:20:00,
2013-01-16 09:30:00,28.4,26.4,29.88,NE,43,3.0,8.0,92,0.00,OVC,,0.00,0.0,WeatherDisplay:10.37,2013-01-16 09:30:00,
2013-01-16 09:40:00,28.4,26.4,29.88,NE,54,1.0,6.0,92,0.00,OVC,,0.00,0.0,WeatherDisplay:10.37,2013-01-16 09:40:00,
2013-01-16 09:50:00,28.7,26.4,29.88,NE,49,0.0,7.0,91,0.00,OVC,,0.00,0.0,WeatherDisplay:10.37,2013-01-16 09:50:00,
2013-01-16 10:00:00,28.9,26.6,29.88,ENE,60,0.0,7.0,91,0.00,OVC,,0.00,0.0,WeatherDisplay:10.37,2013-01-16 10:00:00,
2013-01-16 10:10:00,29.1,26.8,29.88,NE,41,0.0,6.0,91,0.00,OVC,,0.00,0.0,WeatherDisplay:10.37,2013-01-16 10:10:00,
2013-01-16 10:20:00,29.1,26.8,29.88,NNE,29,5.0,7.0,91,0.00,OVC,,0.00,0.0,WeatherDisplay:10.37,2013-01-16 10:20:00,
2013-01-16 10:30:00,29.2,26.9,29.88,NE,51,0.0,7.0,91,0.00,OVC,,0.00,0.0,WeatherDisplay:10.37,2013-01-16 10:30:00,
2013-01-16 10:40:00,29.5,27.2,29.88,NE,38,0.0,6.0,91,0.00,OVC,,0.00,1.8,WeatherDisplay:10.37,2013-01-16 10:40:00,
2013-01-16 10:50:00,30.2,27.9,29.88,NE,37,0.0,6.0,91,0.00,OVC,,0.00,3.8,WeatherDisplay:10.37,2013-01-16 10:50:00,
2013-01-16 11:00:00,31.1,28.5,29.88,NE,38,0.0,0.0,90,0.00,OVC,,0.00,2.0,WeatherDisplay:10.37,2013-01-16 11:00:00,
2013-01-16 11:10:00,30.9,28.1,29.88,NE,50,0.0,6.0,89,0.00,BKN,,0.00,0.0,WeatherDisplay:10.37,2013-01-16 11:10:00,
2013-01-16 11:20:00,30.9,27.8,29.88,NE,47,0.0,3.0,88,0.00,BKN,,0.00,0.0,WeatherDisplay:10.37,2013-01-16 11:20:00,
2013-01-16 11:30:00,30.6,27.2,29.88,ENE,76,0.0,5.0,87,0.00,BKN,,0.00,0.0,WeatherDisplay:10.37,2013-01-16 11:30:00,
2013-01-16 11:40:00,30.7,27.3,29.88,ENE,76,0.0,0.0,87,0.00,BKN,,0.00,0.0,WeatherDisplay:10.37,2013-01-16 11:40:00,
2013-01-16 11:50:00,30.9,27.2,29.88,East,95,0.0,5.0,86,0.00,BKN,,0.00,0.0,WeatherDisplay:10.37,2013-01-16 11:50:00,
2013-01-16 12:00:00,31.1,27.1,29.88,ENE,62,0.0,0.0,85,0.00,BKN,,0.00,0.0,WeatherDisplay:10.37,2013-01-16 12:00:00,
2013-01-16 12:10:00,31.1,27.1,29.88,ENE,70,1.0,5.0,85,0.00,BKN,,0.00,0.0,WeatherDisplay:10.37,2013-01-16 12:10:00,
2013-01-16 12:20:00,31.6,27.7,29.88,NE,52,1.0,4.0,85,0.00,BKN,,0.00,2.2,WeatherDisplay:10.37,2013-01-16 12:20:00,
2013-01-16 12:30:00,31.8,27.5,29.88,NNE,12,1.0,7.0,84,0.00,BKN,,0.00,0.0,WeatherDisplay:10.37,2013-01-16 12:30:00,
2013-01-16 12:40:00,32.0,27.4,29.88,NE,42,3.0,7.0,83,0.00,BKN,,0.00,0.0,WeatherDisplay:10.37,2013-01-16 12:40:00,
2013-01-16 12:50:00,31.8,27.0,29.88,NNE,32,3.0,7.0,82,0.00,BKN,,0.00,0.0,WeatherDisplay:10.37,2013-01-16 12:50:00,
2013-01-16 13:00:00,31.8,27.0,29.88,NNE,33,3.0,6.0,82,0.00,BKN,,0.00,0.0,WeatherDisplay:10.37,2013-01-16 13:00:00,
2013-01-16 13:10:00,31.8,27.0,29.91,NE,37,2.0,6.0,82,0.00,BKN,,0.00,0.0,WeatherDisplay:10.37,2013-01-16 13:10:00,
2013-01-16 13:20:00,32.0,27.1,29.91,NE,50,2.0,5.0,82,0.00,BKN,,0.00,0.0,WeatherDisplay:10.37,2013-01-16 13:20:00,
2013-01-16 13:30:00,32.5,27.4,29.91,NE,51,0.0,0.0,81,0.00,BKN,,0.00,0.0,WeatherDisplay:10.37,2013-01-16 13:30:00,
2013-01-16 13:40:00,32.9,27.4,29.91,NNE,23,0.0,5.0,80,0.00,BKN,,0.00,0.0,WeatherDisplay:10.37,2013-01-16 13:40:00,
2013-01-16 13:50:00,33.3,27.1,29.88,ENE,78,0.0,5.0,78,0.00,BKN,,0.00,0.0,WeatherDisplay:10.37,2013-01-16 13:50:00,
2013-01-16 14:00:00,33.4,27.3,29.88,NNE,27,0.0,5.0,78,0.00,BKN,,0.00,0.0,WeatherDisplay:10.37,2013-01-16 14:00:00,
2013-01-16 14:10:00,33.3,27.1,29.91,NNE,13,3.0,7.0,78,0.00,SCT,,0.00,0.0,WeatherDisplay:10.37,2013-01-16 14:10:00,
2013-01-16 14:20:00,33.1,27.0,29.91,NNE,31,0.0,6.0,78,0.00,SCT,,0.00,0.0,WeatherDisplay:10.37,2013-01-16 14:20:00,
2013-01-16 14:30:00,33.1,27.0,29.91,North,4,1.0,7.0,78,0.00,SCT,,0.00,0.0,WeatherDisplay:10.37,2013-01-16 14:30:00,
2013-01-16 14:40:00,32.9,26.8,29.91,NNE,31,0.0,7.0,78,0.00,SCT,,0.00,0.0,WeatherDisplay:10.37,2013-01-16 14:40:00,
2013-01-16 14:50:00,32.7,26.9,29.91,North,352,0.0,3.0,79,0.00,SCT,,0.00,0.0,WeatherDisplay:10.37,2013-01-16 14:50:00,
2013-01-16 15:00:00,32.5,26.7,29.91,North,7,0.0,0.0,79,0.00,SCT,,0.00,0.0,WeatherDisplay:10.37,2013-01-16 15:00:00,
2013-01-16 15:10:00,32.2,26.7,29.94,NNW,338,0.0,5.0,80,0.00,FEW,,0.00,0.0,WeatherDisplay:10.37,2013-01-16 15:10:00,
2013-01-16 15:20:00,31.8,26.7,29.94,NNW,334,0.0,5.0,81,0.00,FEW,,0.00,0.0,WeatherDisplay:10.37,2013-01-16 15:20:00,
2013-01-16 15:30:00,31.5,26.6,29.94,NNW,331,3.0,7.0,82,0.00,FEW,,0.00,0.0,WeatherDisplay:10.37,2013-01-16 15:30:00,
2013-01-16 15:40:00,31.3,26.4,29.94,NNW,331,0.0,6.0,82,0.00,FEW,,0.00,0.0,WeatherDisplay:10.37,2013-01-16 15:40:00,
2013-01-16 15:50:00,31.3,26.4,29.94,NNE,31,2.0,7.0,82,0.00,FEW,,0.00,0.0,WeatherDisplay:10.37,2013-01-16 15:50:00,
2013-01-16 16:00:00,31.1,26.2,29.94,NNE,16,2.0,4.0,82,0.00,FEW,,0.00,0.0,WeatherDisplay:10.37,2013-01-16 16:00:00,
2013-01-16 16:10:00,31.1,26.2,29.94,NE,41,1.0,6.0,82,0.00,FEW,,0.00,0.0,WeatherDisplay:10.37,2013-01-16 16:10:00,
2013-01-16 16:20:00,30.9,26.4,29.94,NE,38,0.0,5.0,83,0.00,FEW,,0.00,0.0,WeatherDisplay:10.37,2013-01-16 16:20:00,
2013-01-16 16:30:00,30.9,26.4,29.94,NE,52,0.0,5.0,83,0.00,FEW,,0.00,0.0,WeatherDisplay:10.37,2013-01-16 16:30:00,
2013-01-16 16:40:00,30.7,26.2,29.94,NE,53,0.0,0.0,83,0.00,FEW,,0.00,0.0,WeatherDisplay:10.37,2013-01-16 16:40:00,
2013-01-16 16:50:00,30.6,26.3,29.94,NNE,31,0.0,0.0,84,0.00,FEW,,0.00,0.0,WeatherDisplay:10.37,2013-01-16 16:50:00,
2013-01-16 17:00:00,30.6,26.3,29.94,NE,46,0.0,0.0,84,0.00,FEW,,0.00,0.0,WeatherDisplay:10.37,2013-01-16 17:00:00,
2013-01-16 17:10:00,30.4,26.4,29.94,NE,52,0.0,0.0,85,0.00,CLR,,0.00,0.0,WeatherDisplay:10.37,2013-01-16 17:10:00,
2013-01-16 17:20:00,30.2,26.2,29.94,NE,52,0.0,0.0,85,0.00,CLR,,0.00,0.0,WeatherDisplay:10.37,2013-01-16 17:20:00,
2013-01-16 17:30:00,30.2,26.2,29.94,NNE,29,0.0,0.0,85,0.00,CLR,,0.00,0.0,WeatherDisplay:10.37,2013-01-16 17:30:00,
2013-01-16 17:40:00,30.2,26.5,29.97,NNW,345,0.0,0.0,86,0.00,CLR,,0.00,0.0,WeatherDisplay:10.37,2013-01-16 17:40:00,
2013-01-16 17:50:00,30.2,26.5,29.97,NNW,342,0.0,0.0,86,0.00,CLR,,0.00,0.0,WeatherDisplay:10.37,2013-01-16 17:50:00,
2013-01-16 18:00:00,30.0,26.6,29.97,North,357,0.0,0.0,87,0.00,CLR,,0.00,0.0,WeatherDisplay:10.37,2013-01-16 18:00:00,
2013-01-16 18:10:00,29.8,26.4,29.97,North,357,0.0,0.0,87,0.00,CLR,,0.00,0.0,WeatherDisplay:10.37,2013-01-16 18:10:00,
2013-01-16 18:20:00,29.8,26.4,29.97,North,357,0.0,0.0,87,0.00,CLR,,0.00,0.0,WeatherDisplay:10.37,2013-01-16 18:20:00,
2013-01-16 18:30:00,29.8,26.7,29.97,North,357,0.0,0.0,88,0.00,CLR,,0.00,0.0,WeatherDisplay:10.37,2013-01-16 18:30:00,
2013-01-16 18:40:00,29.8,26.7,29.97,North,357,0.0,0.0,88,0.00,CLR,,0.00,0.0,WeatherDisplay:10.37,2013-01-16 18:40:00,
2013-01-16 18:50:00,29.7,26.5,29.97,North,357,0.0,0.0,88,0.00,CLR,,0.00,0.0,WeatherDisplay:10.37,2013-01-16 18:50:00,
2013-01-16 19:00:00,29.5,26.4,29.97,North,357,0.0,0.0,88,0.00,CLR,,0.00,0.0,WeatherDisplay:10.37,2013-01-16 19:00:00,
2013-01-16 19:10:00,29.5,26.4,29.97,North,357,0.0,0.0,88,0.00,CLR,,0.00,0.0,WeatherDisplay:10.37,2013-01-16 19:10:00,
2013-01-16 19:20:00,29.5,26.4,30.00,North,357,0.0,0.0,88,0.00,CLR,,0.00,0.0,WeatherDisplay:10.37,2013-01-16 19:20:00,
2013-01-16 19:30:00,29.3,26.5,30.00,North,357,0.0,0.0,89,0.00,CLR,,0.00,0.0,WeatherDisplay:10.37,2013-01-16 19:30:00,
2013-01-16 19:40:00,29.1,26.3,30.00,North,357,0.0,0.0,89,0.00,CLR,,0.00,0.0,WeatherDisplay:10.37,2013-01-16 19:40:00,
2013-01-16 19:50:00,28.8,25.9,30.00,North,357,0.0,0.0,89,0.00,CLR,,0.00,0.0,WeatherDisplay:10.37,2013-01-16 19:50:00,
2013-01-16 20:00:00,28.6,25.8,30.00,North,357,0.0,0.0,89,0.00,CLR,,0.00,0.0,WeatherDisplay:10.37,2013-01-16 20:00:00,
2013-01-16 20:10:00,28.4,25.6,30.00,North,357,0.0,0.0,89,0.00,CLR,,0.00,0.0,WeatherDisplay:10.37,2013-01-16 20:10:00,
2013-01-16 20:20:00,28.2,25.4,30.00,North,357,0.0,0.0,89,0.00,CLR,,0.00,0.0,WeatherDisplay:10.37,2013-01-16 20:20:00,
2013-01-16 20:30:00,28.0,25.5,30.00,North,357,0.0,0.0,90,0.00,CLR,,0.00,0.0,WeatherDisplay:10.37,2013-01-16 20:30:00,
2013-01-16 20:40:00,27.9,25.3,30.00,North,357,0.0,0.0,90,0.00,CLR,,0.00,0.0,WeatherDisplay:10.37,2013-01-16 20:40:00,
2013-01-16 20:50:00,27.3,24.5,30.00,North,357,0.0,0.0,89,0.00,CLR,,0.00,0.0,WeatherDisplay:10.37,2013-01-16 20:50:00,
2013-01-16 21:00:00,27.1,24.6,30.00,North,357,0.0,0.0,90,0.00,CLR,,0.00,0.0,WeatherDisplay:10.37,2013-01-16 21:00:00,
2013-01-16 21:10:00,27.1,24.6,30.00,North,357,0.0,0.0,90,0.00,CLR,,0.00,0.0,WeatherDisplay:10.37,2013-01-16 21:10:00,
2013-01-16 21:20:00,27.1,24.6,30.00,North,357,0.0,0.0,90,0.00,CLR,,0.00,0.0,WeatherDisplay:10.37,2013-01-16 21:20:00,
2013-01-16 21:30:00,27.0,24.4,30.00,North,357,0.0,0.0,90,0.00,CLR,,0.00,0.0,WeatherDisplay:10.37,2013-01-16 21:30:00,
2013-01-16 21:40:00,26.8,24.2,30.00,North,357,0.0,0.0,90,0.00,CLR,,0.00,0.0,WeatherDisplay:10.37,2013-01-16 21:40:00,
2013-01-16 21:50:00,26.8,24.2,30.00,North,357,0.0,0.0,90,0.00,CLR,,0.00,0.0,WeatherDisplay:10.37,2013-01-16 21:50:00,
2013-01-16 22:00:00,26.4,23.8,30.00,North,357,0.0,0.0,90,0.00,CLR,,0.00,0.0,WeatherDisplay:10.37,2013-01-16 22:00:00,
2013-01-16 22:10:00,25.8,23.3,30.00,North,357,0.0,0.0,90,0.00,CLR,,0.00,0.0,WeatherDisplay:10.37,2013-01-16 22:10:00,
2013-01-16 22:20:00,25.7,23.2,30.00,North,357,0.0,0.0,90,0.00,CLR,,0.00,0.0,WeatherDisplay:10.37,2013-01-16 22:20:00,
2013-01-16 22:30:00,25.9,23.4,30.00,North,357,0.0,0.0,90,0.00,CLR,,0.00,0.0,WeatherDisplay:10.37,2013-01-16 22:30:00,
2013-01-16 22:40:00,26.1,23.5,30.00,North,357,0.0,0.0,90,0.00,CLR,,0.00,0.0,WeatherDisplay:10.37,2013-01-16 22:40:00,
2013-01-16 22:50:00,25.7,23.2,30.00,North,357,0.0,0.0,90,0.00,CLR,,0.00,0.0,WeatherDisplay:10.37,2013-01-16 22:50:00,
2013-01-16 23:00:00,25.7,23.2,30.00,North,357,0.0,0.0,90,0.00,CLR,,0.00,0.0,WeatherDisplay:10.37,2013-01-16 23:00:00,
2013-01-16 23:10:00,25.7,23.2,30.00,North,357,0.0,0.0,90,0.00,CLR,,0.00,0.0,WeatherDisplay:10.37,2013-01-16 23:10:00,
2013-01-16 23:20:00,25.9,23.4,30.00,North,357,0.0,0.0,90,0.00,CLR,,0.00,0.0,WeatherDisplay:10.37,2013-01-16 23:20:00,
2013-01-16 23:30:00,26.0,23.5,30.00,North,357,0.0,0.0,90,0.00,CLR,,0.00,0.0,WeatherDisplay:10.37,2013-01-16 23:30:00,
2013-01-16 23:40:00,26.1,23.8,30.00,North,357,0.0,0.0,91,0.00,CLR,,0.00,0.0,WeatherDisplay:10.37,2013-01-16 23:40:00,
2013-01-16 23:50:00,26.1,23.8,30.03,North,357,0.0,0.0,91,0.00,CLR,,0.00,0.0,WeatherDisplay:10.37,2013-01-16 23:50:00,